Time;durP1;ratioP1;P1;durP2;ratioP2;P2;SDS_P1;SDS_P2;PMS_P1;PMS_P2;Temp;Humidity;BMP_temperature;BMP_pressure;BME280_temperature;BME280_humidity;BME280_pressure;Samples;Min_cycle;Max_cycle;Signal;HPM_P1;HPM_P2
2023/04/14 00:00:30;;;;;;;57.00;28.10;;;;;;;10.96;100.00;99790.25;106790;1285;58164;-87
2023/04/14 00:02:56;;;;;;;54.60;28.10;;;;;;;10.97;100.00;99791.70;106745;1285;58329;-87
2023/04/14 00:05:21;;;;;;;52.40;28.20;;;;;;;10.94;100.00;99794.36;106785;1285;58297;-86
2023/04/14 00:07:47;;;;;;;56.50;27.20;;;;;;;10.94;100.00;99797.60;106823;1285;58186;-87
2023/04/14 00:10:12;;;;;;;54.90;27.50;;;;;;;10.95;100.00;99801.14;106880;1285;58319;-87
2023/04/14 00:12:38;;;;;;;54.20;27.60;;;;;;;10.94;100.00;99802.50;106585;1285;58804;-87
2023/04/14 00:15:04;;;;;;;51.70;27.40;;;;;;;10.96;100.00;99799.58;106698;1285;58313;-88
2023/04/14 00:17:30;;;;;;;56.70;26.90;;;;;;;10.98;100.00;99799.67;106573;1285;58459;-86
2023/04/14 00:19:55;;;;;;;56.90;29.40;;;;;;;11.00;100.00;99800.30;106808;1285;58478;-87
2023/04/14 00:22:21;;;;;;;53.50;28.30;;;;;;;10.99;100.00;99801.27;106826;1285;58371;-86
2023/04/14 00:24:46;;;;;;;49.50;26.70;;;;;;;10.97;100.00;99802.81;106588;1285;58650;-86
2023/04/14 00:27:12;;;;;;;50.30;27.90;;;;;;;11.00;100.00;99801.81;106759;1285;58278;-86
2023/04/14 00:29:38;;;;;;;57.20;27.80;;;;;;;11.00;100.00;99800.95;106584;1285;58355;-87
2023/04/14 00:32:04;;;;;;;55.60;27.70;;;;;;;10.99;100.00;99799.77;106809;1285;58578;-87
2023/04/14 00:34:30;;;;;;;58.90;28.80;;;;;;;10.99;100.00;99801.28;106562;1285;58739;-86
2023/04/14 00:36:56;;;;;;;55.10;28.30;;;;;;;10.98;100.00;99795.80;106777;1285;58232;-87
2023/04/14 00:39:21;;;;;;;57.50;28.90;;;;;;;10.96;100.00;99795.92;106429;1285;59097;-85
2023/04/14 00:41:47;;;;;;;60.40;28.20;;;;;;;10.98;100.00;99800.71;106775;1288;58523;-87
2023/04/14 00:44:12;;;;;;;57.70;28.40;;;;;;;10.95;100.00;99799.96;106816;1285;58299;-87
2023/04/14 00:46:39;;;;;;;54.40;27.80;;;;;;;10.97;100.00;99804.96;106456;1285;58302;-86
2023/04/14 00:49:05;;;;;;;56.60;28.90;;;;;;;10.95;100.00;99798.45;106776;1285;58623;-87
2023/04/14 00:51:32;;;;;;;55.20;28.40;;;;;;;10.95;100.00;99799.64;106718;1288;58266;-87
2023/04/14 00:54:01;;;;;;;56.00;28.10;;;;;;;10.94;100.00;99797.42;106688;1288;58183;-86
2023/04/14 00:56:28;;;;;;;57.90;28.90;;;;;;;10.92;100.00;99799.06;106812;1285;74198;-87
2023/04/14 00:58:54;;;;;;;54.00;27.60;;;;;;;10.96;100.00;99798.45;106725;1285;72339;-87
2023/04/14 01:01:21;;;;;;;60.90;29.20;;;;;;;10.91;100.00;99798.10;106519;1285;58289;-85
2023/04/14 01:03:47;;;;;;;57.60;28.20;;;;;;;10.91;100.00;99798.81;106755;1285;58311;-86
2023/04/14 01:06:12;;;;;;;51.60;27.20;;;;;;;10.91;100.00;99799.23;106794;1285;58680;-86
2023/04/14 01:08:38;;;;;;;58.60;29.60;;;;;;;10.94;100.00;99801.95;106839;1285;58519;-87
2023/04/14 01:11:07;;;;;;;56.40;26.80;;;;;;;10.96;100.00;99806.48;106790;1285;58220;-86
2023/04/14 01:13:55;;;;;;;55.70;27.20;;;;;;;10.95;100.00;99806.05;106801;1285;58611;-87
2023/04/14 01:16:29;;;;;;;56.80;27.90;;;;;;;10.96;100.00;99806.64;106745;1285;61232;-85
2023/04/14 01:19:13;;;;;;;55.00;28.30;;;;;;;10.94;100.00;99806.98;106828;1285;73534;-86
2023/04/14 01:21:49;;;;;;;58.00;26.60;;;;;;;10.93;100.00;99810.27;106771;1285;73423;-86
2023/04/14 01:24:20;;;;;;;52.80;27.10;;;;;;;10.95;100.00;99813.50;106753;1285;73602;-86
2023/04/14 01:26:47;;;;;;;53.80;27.40;;;;;;;10.94;100.00;99809.40;106773;1285;62106;-86
2023/04/14 01:29:27;;;;;;;53.30;27.30;;;;;;;10.93;100.00;99807.20;106812;1285;58087;-86
2023/04/14 01:32:01;;;;;;;53.40;28.20;;;;;;;10.93;100.00;99807.52;106777;1285;74570;-85
2023/04/14 01:34:54;;;;;;;53.70;27.40;;;;;;;10.95;100.00;99807.78;106791;1285;74200;-85
2023/04/14 01:37:23;;;;;;;57.70;29.20;;;;;;;10.97;100.00;99804.05;106773;1285;73295;-86
2023/04/14 01:39:53;;;;;;;55.10;26.20;;;;;;;10.95;100.00;99802.34;106741;1285;60849;-86
2023/04/14 01:42:22;;;;;;;52.80;26.80;;;;;;;10.94;100.00;99803.37;106759;1285;61129;-86
2023/04/14 01:44:55;;;;;;;55.10;26.50;;;;;;;10.93;100.00;99805.91;106652;1285;73729;-86
2023/04/14 01:47:23;;;;;;;47.80;26.30;;;;;;;10.94;100.00;99803.31;106809;1285;73432;-86
2023/04/14 01:49:52;;;;;;;58.30;26.40;;;;;;;10.94;100.00;99802.98;106785;1285;72415;-85
2023/04/14 01:52:19;;;;;;;49.00;24.70;;;;;;;10.93;100.00;99804.28;106326;1285;61830;-84
2023/04/14 01:54:48;;;;;;;58.20;25.80;;;;;;;10.91;100.00;99799.94;106760;1285;60244;-87
2023/04/14 01:57:19;;;;;;;53.90;25.60;;;;;;;10.86;100.00;99799.92;106783;1285;74659;-85
2023/04/14 01:59:47;;;;;;;50.30;24.50;;;;;;;10.86;100.00;99802.04;106760;1285;73768;-86
2023/04/14 02:02:14;;;;;;;49.40;24.40;;;;;;;10.85;100.00;99804.89;106783;1285;72534;-85
2023/04/14 02:04:42;;;;;;;53.20;24.00;;;;;;;10.84;100.00;99809.70;106746;1285;60943;-85
2023/04/14 02:07:10;;;;;;;48.90;23.80;;;;;;;10.85;100.00;99811.04;106364;1285;60094;-86
2023/04/14 02:09:38;;;;;;;44.90;23.10;;;;;;;10.85;100.00;99812.92;106749;1285;73638;-85
2023/04/14 02:12:06;;;;;;;47.20;23.20;;;;;;;10.86;100.00;99817.83;106754;1285;74499;-86
2023/04/14 02:14:33;;;;;;;49.00;23.60;;;;;;;10.86;100.00;99815.83;106768;1285;73486;-84
2023/04/14 02:17:01;;;;;;;47.20;23.10;;;;;;;10.84;100.00;99819.88;106657;1285;61841;-85
2023/04/14 02:19:29;;;;;;;53.10;23.20;;;;;;;10.85;100.00;99825.86;106447;1285;61457;-85
2023/04/14 02:21:56;;;;;;;46.60;21.70;;;;;;;10.84;100.00;99828.35;106765;1285;74403;-85
2023/04/14 02:24:22;;;;;;;46.90;22.10;;;;;;;10.84;100.00;99827.42;106789;1286;72859;-85
2023/04/14 02:26:57;;;;;;;44.40;22.20;;;;;;;10.83;100.00;99830.51;106779;1285;58568;-85
2023/04/14 02:29:24;;;;;;;48.20;21.90;;;;;;;10.79;100.00;99835.38;106725;1285;61062;-84
2023/04/14 02:31:58;;;;;;;46.70;22.10;;;;;;;10.81;100.00;99838.45;106694;1285;60432;-84
2023/04/14 02:34:29;;;;;;;51.20;22.80;;;;;;;10.81;100.00;99838.50;106540;1285;74765;-85
2023/04/14 02:36:59;;;;;;;47.20;21.30;;;;;;;10.81;100.00;99840.77;106757;1285;73422;-85
2023/04/14 02:39:41;;;;;;;44.60;22.50;;;;;;;10.80;100.00;99845.73;106695;1285;73507;-85
2023/04/14 02:42:15;;;;;;;51.90;21.00;;;;;;;10.80;100.00;99845.24;106744;1285;60847;-85
2023/04/14 02:44:59;;;;;;;48.70;20.70;;;;;;;10.82;100.00;99848.63;106711;1285;60048;-85
2023/04/14 02:47:55;;;;;;;41.30;20.90;;;;;;;10.80;100.00;99850.52;106715;1285;72499;-86
2023/04/14 02:50:23;;;;;;;47.20;20.70;;;;;;;10.80;100.00;99849.98;106815;1285;74835;-83
2023/04/14 02:52:50;;;;;;;39.60;19.20;;;;;;;10.82;100.00;99853.27;106783;1285;73438;-85
2023/04/14 02:55:18;;;;;;;46.70;20.20;;;;;;;10.82;100.00;99856.06;106766;1285;60987;-85
2023/04/14 02:57:47;;;;;;;38.50;19.00;;;;;;;10.80;100.00;99855.88;106799;1289;61122;-87
2023/04/14 03:00:14;;;;;;;42.80;20.40;;;;;;;10.78;100.00;99852.54;106770;1285;74526;-87
2023/04/14 03:02:43;;;;;;;46.70;19.10;;;;;;;10.77;100.00;99854.11;106364;1285;74368;-86
2023/04/14 03:05:09;;;;;;;50.00;20.00;;;;;;;10.80;100.00;99857.86;106789;1285;72591;-87
2023/04/14 03:07:36;;;;;;;47.70;19.70;;;;;;;10.77;100.00;99859.49;106750;1285;58524;-87
2023/04/14 03:10:02;;;;;;;46.70;20.60;;;;;;;10.75;100.00;99860.59;106479;1285;60548;-86
2023/04/14 03:12:29;;;;;;;44.10;19.80;;;;;;;10.74;100.00;99861.95;106695;1286;58228;-86
2023/04/14 03:14:55;;;;;;;43.60;19.30;;;;;;;10.73;100.00;99858.50;106689;1285;74569;-87
2023/04/14 03:17:21;;;;;;;38.60;19.70;;;;;;;10.71;100.00;99863.30;106651;1285;58716;-86
2023/04/14 03:19:48;;;;;;;41.00;18.90;;;;;;;10.70;100.00;99861.48;106449;1285;58340;-87
2023/04/14 03:22:19;;;;;;;44.50;19.20;;;;;;;10.74;100.00;99862.54;106484;1289;58330;-87
2023/04/14 03:24:46;;;;;;;39.10;17.80;;;;;;;10.74;100.00;99863.83;106407;1289;73821;-87
2023/04/14 03:27:19;;;;;;;37.90;16.70;;;;;;;10.70;100.00;99869.89;106515;1287;74293;-88
2023/04/14 03:29:50;;;;;;;33.90;17.40;;;;;;;10.70;100.00;99874.30;106296;1288;73589;-87
2023/04/14 03:32:16;;;;;;;37.50;17.30;;;;;;;10.72;100.00;99876.67;106437;1289;61176;-88
2023/04/14 03:34:45;;;;;;;34.60;16.20;;;;;;;10.73;100.00;99878.00;106516;1289;61055;-86
2023/04/14 03:37:15;;;;;;;36.60;16.00;;;;;;;10.73;100.00;99882.86;106435;1288;73801;-87
2023/04/14 03:39:42;;;;;;;36.20;14.80;;;;;;;10.72;100.00;99883.78;106491;1288;74219;-86
2023/04/14 03:42:10;;;;;;;30.10;14.40;;;;;;;10.72;100.00;99887.13;106272;1289;72031;-87
2023/04/14 03:44:38;;;;;;;31.90;14.70;;;;;;;10.71;100.00;99886.86;106459;1287;61109;-88
2023/04/14 03:47:06;;;;;;;26.80;13.60;;;;;;;10.73;100.00;99892.77;106313;1288;60941;-87
2023/04/14 03:49:36;;;;;;;30.70;13.60;;;;;;;10.74;100.00;99892.99;106495;1289;74891;-86
2023/04/14 03:52:09;;;;;;;27.40;13.20;;;;;;;10.74;100.00;99894.23;106557;1288;74156;-87
2023/04/14 03:54:36;;;;;;;23.00;12.00;;;;;;;10.73;100.00;99897.84;106550;1286;72358;-87
2023/04/14 03:57:05;;;;;;;26.70;12.30;;;;;;;10.74;100.00;99901.34;106542;1288;60334;-86
2023/04/14 03:59:32;;;;;;;29.70;12.00;;;;;;;10.75;100.00;99905.48;106786;1285;60184;-86
2023/04/14 04:02:01;;;;;;;28.50;11.90;;;;;;;10.76;100.00;99908.81;106775;1285;74226;-87
2023/04/14 04:04:28;;;;;;;27.70;12.20;;;;;;;10.73;100.00;99907.70;106777;1285;74761;-86
2023/04/14 04:06:55;;;;;;;24.10;12.00;;;;;;;10.72;100.00;99910.02;106741;1286;73505;-86
2023/04/14 04:09:23;;;;;;;21.50;11.20;;;;;;;10.73;100.00;99909.75;106721;1285;61917;-85
2023/04/14 04:11:51;;;;;;;22.60;11.90;;;;;;;10.70;100.00;99914.61;106823;1285;60904;-86
2023/04/14 04:14:19;;;;;;;29.10;11.60;;;;;;;10.67;100.00;99911.78;106827;1285;74779;-86
2023/04/14 04:16:48;;;;;;;22.30;10.60;;;;;;;10.66;100.00;99918.80;106767;1285;73690;-87
2023/04/14 04:19:16;;;;;;;26.40;11.00;;;;;;;10.68;100.00;99922.60;106777;1285;73963;-87
2023/04/14 04:21:44;;;;;;;24.40;10.00;;;;;;;10.71;100.00;99925.55;106728;1287;60886;-86
2023/04/14 04:24:12;;;;;;;26.20;9.80;;;;;;;10.73;100.00;99931.42;106790;1285;61117;-87
2023/04/14 04:26:38;;;;;;;24.30;10.80;;;;;;;10.74;100.00;99934.72;106807;1285;73658;-86
2023/04/14 04:29:04;;;;;;;21.60;10.40;;;;;;;10.74;100.00;99937.23;106867;1286;58377;-87
2023/04/14 04:31:34;;;;;;;19.90;9.90;;;;;;;10.74;100.00;99936.59;106711;1285;58321;-86
2023/04/14 04:34:02;;;;;;;16.40;8.60;;;;;;;10.71;100.00;99935.84;106762;1286;61061;-86
2023/04/14 04:36:30;;;;;;;29.20;10.00;;;;;;;10.73;100.00;99939.55;106781;1285;59864;-86
2023/04/14 04:38:56;;;;;;;19.40;8.80;;;;;;;10.74;100.00;99941.34;106306;1285;73803;-86
2023/04/14 04:41:26;;;;;;;21.80;8.90;;;;;;;10.75;100.00;99944.67;106814;1286;58316;-86
2023/04/14 04:43:52;;;;;;;18.50;8.40;;;;;;;10.76;100.00;99945.20;106659;1287;73491;-86
2023/04/14 04:46:18;;;;;;;18.80;8.80;;;;;;;10.77;100.00;99942.83;106771;1286;58192;-86
2023/04/14 04:48:43;;;;;;;18.30;8.50;;;;;;;10.79;100.00;99943.52;106753;1286;58222;-86
2023/04/14 04:51:09;;;;;;;17.30;8.80;;;;;;;10.81;100.00;99942.48;106784;1285;58638;-86
2023/04/14 04:53:34;;;;;;;17.90;8.80;;;;;;;10.82;100.00;99943.34;106525;1289;58913;-86
2023/04/14 04:56:01;;;;;;;13.20;7.60;;;;;;;10.83;100.00;99950.08;106751;1286;60448;-86
2023/04/14 04:58:26;;;;;;;20.70;8.00;;;;;;;10.84;100.00;99951.42;106813;1286;58236;-85
2023/04/14 05:00:53;;;;;;;15.50;7.50;;;;;;;10.91;100.00;99955.37;106807;1285;58731;-85
2023/04/14 05:03:18;;;;;;;16.10;7.30;;;;;;;10.94;100.00;99955.57;106828;1285;58214;-85
2023/04/14 05:05:44;;;;;;;17.40;7.70;;;;;;;10.96;100.00;99955.19;106450;1286;58330;-86
2023/04/14 05:08:10;;;;;;;16.50;7.90;;;;;;;10.95;100.00;99956.64;106799;1285;58235;-85
2023/04/14 05:10:35;;;;;;;15.80;8.10;;;;;;;10.96;100.00;99962.78;106811;1286;58278;-85
2023/04/14 05:13:01;;;;;;;14.20;7.20;;;;;;;10.97;100.00;99964.55;106686;1286;74324;-86
2023/04/14 05:15:26;;;;;;;14.90;7.60;;;;;;;10.99;100.00;99964.22;106549;1286;58311;-85
2023/04/14 05:17:52;;;;;;;15.50;7.90;;;;;;;11.01;100.00;99963.14;106363;1286;58337;-84
2023/04/14 05:20:18;;;;;;;14.00;7.90;;;;;;;11.03;100.00;99961.67;106828;1285;58389;-85
2023/04/14 05:22:43;;;;;;;12.40;6.50;;;;;;;11.03;100.00;99967.05;106602;1286;58303;-85
2023/04/14 05:25:09;;;;;;;15.60;7.10;;;;;;;10.99;100.00;99963.91;106793;1286;72547;-85
2023/04/14 05:27:35;;;;;;;17.60;7.70;;;;;;;10.96;100.00;99971.52;106445;1289;58464;-86
2023/04/14 05:30:00;;;;;;;16.10;7.00;;;;;;;10.96;100.00;99971.41;106755;1285;58431;-85
2023/04/14 05:32:27;;;;;;;15.30;7.60;;;;;;;11.02;100.00;99974.20;106780;1285;58483;-85
2023/04/14 05:34:52;;;;;;;13.90;7.30;;;;;;;11.06;100.00;99970.55;106752;1285;58389;-85
2023/04/14 05:37:18;;;;;;;14.50;7.70;;;;;;;11.07;100.00;99976.59;106797;1285;58327;-85
2023/04/14 05:39:44;;;;;;;17.00;8.10;;;;;;;11.06;100.00;99978.80;106789;1285;61202;-85
2023/04/14 05:42:09;;;;;;;20.40;8.10;;;;;;;11.07;100.00;99984.25;106857;1285;58312;-85
2023/04/14 05:44:35;;;;;;;17.80;7.80;;;;;;;11.04;100.00;99984.58;106717;1285;58397;-85
2023/04/14 05:47:01;;;;;;;16.90;7.30;;;;;;;11.02;100.00;99984.38;106756;1285;59040;-85
2023/04/14 05:49:26;;;;;;;13.60;7.80;;;;;;;11.01;100.00;99983.14;106601;1286;58283;-85
2023/04/14 05:51:55;;;;;;;15.70;7.40;;;;;;;11.03;100.00;99983.73;106891;1285;59207;-85
2023/04/14 05:54:21;;;;;;;17.30;7.60;;;;;;;11.04;100.00;99983.02;106556;1285;404191;-85
2023/04/14 05:56:46;;;;;;;13.00;7.70;;;;;;;11.08;100.00;99987.58;106593;1285;58191;-84
2023/04/14 05:59:12;;;;;;;16.20;7.60;;;;;;;11.13;100.00;99990.37;106870;1285;59370;-85
2023/04/14 06:01:37;;;;;;;14.00;8.10;;;;;;;11.05;100.00;99992.56;106786;1285;58749;-85
2023/04/14 06:04:03;;;;;;;16.80;7.70;;;;;;;11.03;100.00;100001.20;106916;1286;58289;-85
2023/04/14 06:06:31;;;;;;;16.70;8.40;;;;;;;11.10;100.00;100001.33;106486;1286;72420;-84
2023/04/14 06:08:57;;;;;;;16.10;8.80;;;;;;;11.13;100.00;100000.50;106753;1285;62927;-86
2023/04/14 06:11:22;;;;;;;16.60;8.70;;;;;;;11.14;100.00;100007.55;106805;1285;58665;-86
2023/04/14 06:13:49;;;;;;;20.70;9.20;;;;;;;11.15;100.00;100008.48;106783;1285;58545;-85
2023/04/14 06:16:14;;;;;;;17.00;9.10;;;;;;;11.16;100.00;100013.95;106770;1289;58653;-83
2023/04/14 06:18:40;;;;;;;19.00;9.00;;;;;;;11.15;100.00;100016.13;106705;1285;58692;-84
2023/04/14 06:21:06;;;;;;;26.10;9.10;;;;;;;11.12;100.00;100012.38;106832;1285;58939;-86
2023/04/14 06:23:32;;;;;;;17.80;8.50;;;;;;;11.10;100.00;100017.67;106726;1285;74507;-85
2023/04/14 06:25:58;;;;;;;15.20;8.50;;;;;;;11.05;100.00;100019.63;106346;1285;58399;-85
2023/04/14 06:28:25;;;;;;;17.00;8.50;;;;;;;11.00;100.00;100023.00;106723;1285;58534;-88
2023/04/14 06:30:50;;;;;;;17.00;8.90;;;;;;;11.00;100.00;100028.40;106730;1285;58233;-87
2023/04/14 06:33:16;;;;;;;13.40;8.50;;;;;;;11.02;100.00;100030.20;106781;1285;58426;-88
2023/04/14 06:35:42;;;;;;;15.70;8.30;;;;;;;11.03;100.00;100036.30;106759;1285;58248;-87
2023/04/14 06:38:08;;;;;;;14.20;8.70;;;;;;;11.06;100.00;100040.98;106574;1286;58380;-88
2023/04/14 06:40:33;;;;;;;15.40;8.40;;;;;;;11.07;100.00;100038.92;106686;1287;58600;-89
2023/04/14 06:42:59;;;;;;;18.90;8.50;;;;;;;11.10;100.00;100042.37;106774;1285;60195;-89
2023/04/14 06:45:25;;;;;;;13.60;8.20;;;;;;;11.14;100.00;100038.35;106707;1285;58267;-90
2023/04/14 06:47:50;;;;;;;13.80;7.80;;;;;;;11.15;100.00;100043.20;106767;1285;58616;-89
2023/04/14 06:50:16;;;;;;;16.20;8.40;;;;;;;11.13;100.00;100043.00;106740;1285;58520;-90
2023/04/14 06:52:42;;;;;;;13.90;8.30;;;;;;;11.10;100.00;100045.71;106532;1285;58379;-88
2023/04/14 06:55:08;;;;;;;13.90;8.30;;;;;;;11.06;100.00;100049.17;106839;1285;58311;-90
2023/04/14 06:57:33;;;;;;;15.00;7.70;;;;;;;11.11;100.00;100050.71;106291;1288;74300;-90
2023/04/14 06:59:59;;;;;;;17.70;8.10;;;;;;;11.12;100.00;100051.79;106267;1288;58339;-88
2023/04/14 07:02:24;;;;;;;13.90;7.60;;;;;;;11.15;100.00;100053.89;106461;1288;58356;-89
2023/04/14 07:04:50;;;;;;;15.00;8.20;;;;;;;11.18;100.00;100054.79;106325;1288;59168;-88
2023/04/14 07:07:16;;;;;;;17.30;7.90;;;;;;;11.24;100.00;100059.40;106407;1288;58204;-87
2023/04/14 07:09:42;;;;;;;18.60;8.70;;;;;;;11.25;100.00;100057.77;106203;1293;58326;-90
2023/04/14 07:12:15;;;;;;;14.30;8.30;;;;;;;11.26;100.00;100057.55;106329;1288;62671;-90
2023/04/14 07:14:41;;;;;;;14.60;8.10;;;;;;;11.27;100.00;100059.49;106326;1288;59093;-89
2023/04/14 07:17:25;;;;;;;15.40;7.90;;;;;;;11.27;100.00;100062.40;106444;1288;58644;-89
2023/04/14 07:19:51;;;;;;;14.00;8.20;;;;;;;11.32;100.00;100066.86;106243;1291;73476;-88
2023/04/14 07:22:17;;;;;;;19.70;8.30;;;;;;;11.40;100.00;100070.27;106173;1291;58569;-89
2023/04/14 07:24:43;;;;;;;16.80;8.70;;;;;;;11.44;100.00;100071.21;106140;1291;58685;-88
2023/04/14 07:27:13;;;;;;;16.60;8.10;;;;;;;11.46;100.00;100072.46;106274;1291;58609;-88
2023/04/14 07:29:40;;;;;;;16.10;8.40;;;;;;;11.55;100.00;100075.85;105973;1292;74339;-88
2023/04/14 07:32:07;;;;;;;15.70;8.30;;;;;;;11.64;100.00;100076.45;106276;1291;74309;-87
2023/04/14 07:34:32;;;;;;;16.10;9.30;;;;;;;11.66;100.00;100079.08;106278;1289;58346;-88
2023/04/14 07:36:59;;;;;;;15.10;8.60;;;;;;;11.67;100.00;100079.52;106404;1288;58403;-88
2023/04/14 07:39:25;;;;;;;16.10;9.30;;;;;;;11.73;100.00;100079.41;106320;1287;58642;-88
2023/04/14 07:41:51;;;;;;;16.20;9.40;;;;;;;11.80;100.00;100083.54;106562;1288;58694;-87
2023/04/14 07:44:16;;;;;;;15.40;8.80;;;;;;;11.88;100.00;100081.66;106435;1288;58375;-88
2023/04/14 07:46:42;;;;;;;13.80;8.60;;;;;;;11.97;100.00;100082.19;106405;1289;58285;-88
2023/04/14 07:49:07;;;;;;;14.60;8.30;;;;;;;12.04;100.00;100081.33;106558;1287;58232;-88
2023/04/14 07:51:33;;;;;;;17.10;8.60;;;;;;;12.16;100.00;100081.40;106548;1286;58781;-88
2023/04/14 07:53:59;;;;;;;15.50;8.50;;;;;;;12.29;100.00;100080.10;106600;1286;58331;-83
2023/04/14 07:56:24;;;;;;;15.70;8.20;;;;;;;12.37;100.00;100083.16;106667;1286;58445;-83
2023/04/14 07:58:50;;;;;;;13.90;8.10;;;;;;;12.37;100.00;100086.89;106695;1286;58531;-83
2023/04/14 08:01:16;;;;;;;14.00;8.50;;;;;;;12.35;100.00;100087.83;106762;1286;58297;-83
2023/04/14 08:03:41;;;;;;;14.70;7.90;;;;;;;12.28;100.00;100092.05;106720;1286;73378;-84
2023/04/14 08:06:07;;;;;;;13.10;7.40;;;;;;;12.19;100.00;100096.71;106574;1286;58524;-84
2023/04/14 08:08:34;;;;;;;14.80;8.40;;;;;;;12.16;100.00;100101.05;106735;1286;58237;-86
2023/04/14 08:10:59;;;;;;;14.60;8.00;;;;;;;12.09;100.00;100105.45;106710;1286;58153;-87
2023/04/14 08:13:25;;;;;;;17.20;8.50;;;;;;;12.09;100.00;100111.06;106620;1286;58535;-86
2023/04/14 08:15:51;;;;;;;15.00;7.80;;;;;;;12.07;100.00;100109.89;106705;1286;58326;-87
2023/04/14 08:18:17;;;;;;;12.40;7.10;;;;;;;12.03;100.00;100111.70;106694;1286;58247;-85
2023/04/14 08:20:43;;;;;;;13.00;7.60;;;;;;;12.00;100.00;100113.44;106743;1286;61133;-92
2023/04/14 08:23:10;;;;;;;13.30;6.90;;;;;;;11.97;100.00;100113.04;106480;1291;58518;-93
2023/04/14 08:25:35;;;;;;;12.80;7.20;;;;;;;11.93;100.00;100114.47;106414;1289;58273;-95
2023/04/14 08:28:04;;;;;;;17.50;8.30;;;;;;;11.88;100.00;100111.63;106558;1289;58303;-92
2023/04/14 08:30:31;;;;;;;15.30;8.20;;;;;;;11.95;100.00;100111.59;106288;1293;60571;-93
2023/04/14 08:36:19;;;;;;;10.90;7.00;;;;;;;12.14;100.00;100110.58;106606;1289;72517;-92
2023/04/14 08:38:45;;;;;;;12.00;6.40;;;;;;;12.18;100.00;100113.63;106367;1289;74213;-94
2023/04/14 08:44:32;;;;;;;11.80;7.00;;;;;;;12.18;100.00;100122.92;106572;1288;60445;-92
2023/04/14 08:50:24;;;;;;;18.50;6.70;;;;;;;12.13;100.00;100128.96;106560;1288;72857;-94
2023/04/14 08:52:55;;;;;;;16.60;6.80;;;;;;;12.12;100.00;100127.89;106401;1288;74433;-93
2023/04/14 08:55:21;;;;;;;11.90;6.80;;;;;;;12.16;100.00;100125.59;106660;1285;72711;-93
2023/04/14 09:00:34;;;;;;;12.40;6.40;;;;;;;12.17;100.00;100127.04;106892;1285;59030;-94
2023/04/14 09:03:00;;;;;;;10.70;7.10;;;;;;;12.20;100.00;100131.02;106771;1285;58263;-93
2023/04/14 09:12:11;;;;;;;12.70;7.00;;;;;;;12.34;100.00;100138.04;107078;1285;60623;-94
2023/04/14 09:21:40;;;;;;;12.00;5.80;;;;;;;12.53;100.00;100145.34;106763;1288;72150;-94
2023/04/14 09:34:25;;;;;;;9.90;5.20;;;;;;;12.43;100.00;100160.61;103110;1289;600279;-91
2023/04/14 09:53:46;;;;;;;7.70;4.20;;;;;;;12.79;100.00;100180.20;103173;1292;63471;-90
2023/04/14 09:59:36;;;;;;;11.00;4.80;;;;;;;12.92;100.00;100186.40;104136;1291;70062;-92
2023/04/14 10:05:27;;;;;;;8.10;4.60;;;;;;;13.22;100.00;100194.34;103899;1283;600023;-91
2023/04/14 10:19:18;;;;;;;16.10;6.50;;;;;;;11.85;100.00;100210.67;103822;1295;73621;-91
2023/04/14 10:22:01;;;;;;;11.10;6.20;;;;;;;11.86;100.00;100213.42;103174;1292;600612;-92
2023/04/14 10:27:47;;;;;;;12.70;6.10;;;;;;;12.04;100.00;100223.66;103921;1285;600591;-93
2023/04/14 10:33:39;;;;;;;9.80;6.10;;;;;;;12.26;100.00;100224.51;103884;1285;60374;-91
2023/04/14 10:36:05;;;;;;;9.10;5.80;;;;;;;12.40;100.00;100225.55;106518;1285;73537;-90
2023/04/14 10:38:45;;;;;;;10.80;5.90;;;;;;;12.53;100.00;100230.86;106528;1287;58039;-90
2023/04/14 10:41:11;;;;;;;11.80;5.90;;;;;;;12.56;100.00;100237.00;106392;1285;377807;-92
2023/04/14 10:43:38;;;;;;;10.40;6.10;;;;;;;12.49;100.00;100241.43;106720;1285;58657;-92
2023/04/14 10:46:08;;;;;;;11.00;6.70;;;;;;;12.48;100.00;100244.73;106524;1285;59011;-91
2023/04/14 10:48:39;;;;;;;11.70;6.70;;;;;;;12.37;100.00;100249.30;106369;1290;72182;-92
2023/04/14 10:51:09;;;;;;;14.40;6.70;;;;;;;12.33;100.00;100256.08;106357;1288;73405;-93
2023/04/14 10:53:54;;;;;;;11.60;6.30;;;;;;;12.32;100.00;100254.36;106219;1289;73371;-93
2023/04/14 11:03:29;;;;;;;12.70;6.80;;;;;;;12.28;100.00;100274.70;105988;1297;71714;-94
2023/04/14 11:22:09;;;;;;;10.40;6.10;;;;;;;11.92;100.00;100299.27;96511;1291;74798;-91
2023/04/14 11:30:20;;;;;;;11.10;5.90;;;;;;;11.46;100.00;100311.58;103330;1286;600839;-89
2023/04/14 11:36:11;;;;;;;10.70;5.80;;;;;;;11.25;100.00;100321.36;103963;1285;601104;-90
2023/04/14 11:38:40;;;;;;;9.00;4.60;;;;;;;11.17;100.00;100322.34;103969;1282;62507;-87
2023/04/14 11:41:06;;;;;;;7.80;3.60;;;;;;;11.09;100.00;100327.84;104019;1283;61545;-87
2023/04/14 11:43:32;;;;;;;8.10;3.90;;;;;;;10.99;100.00;100332.90;103931;1283;60291;-88
2023/04/14 11:45:59;;;;;;;7.90;3.70;;;;;;;10.94;100.00;100336.34;103652;1283;60393;-88
2023/04/14 11:48:27;;;;;;;12.70;4.00;;;;;;;10.92;100.00;100340.23;104069;1283;60317;-90
2023/04/14 11:50:54;;;;;;;5.40;3.10;;;;;;;10.88;100.00;100340.17;103789;1285;360389;-90
2023/04/14 11:53:20;;;;;;;5.90;3.80;;;;;;;10.89;100.00;100341.46;103683;1283;60655;-90
2023/04/14 11:55:50;;;;;;;9.40;3.80;;;;;;;10.86;100.00;100340.50;103784;1286;60514;-88
2023/04/14 11:58:23;;;;;;;8.90;3.70;;;;;;;10.82;100.00;100341.95;103714;1283;75033;-88
2023/04/14 12:00:49;;;;;;;6.00;3.20;;;;;;;10.81;100.00;100344.48;103599;1288;73986;-88
2023/04/14 12:03:15;;;;;;;7.20;3.60;;;;;;;10.79;100.00;100350.24;103686;1286;63264;-89
2023/04/14 12:05:41;;;;;;;10.20;3.90;;;;;;;10.78;100.00;100351.42;103658;1286;60397;-87
2023/04/14 12:08:08;;;;;;;6.50;4.20;;;;;;;10.82;100.00;100354.02;103748;1284;60334;-89
2023/04/14 12:16:45;;;;;;;8.90;3.40;;;;;;;10.63;100.00;100366.32;102912;1294;600382;-84
2023/04/14 12:19:10;;;;;;;16.70;5.30;;;;;;;10.55;100.00;100368.45;103014;1297;60429;-85
2023/04/14 12:21:36;;;;;;;8.10;3.80;;;;;;;10.49;100.00;100374.64;103225;1294;60419;-84
2023/04/14 12:24:01;;;;;;;6.40;3.70;;;;;;;10.43;100.00;100373.10;103270;1291;60409;-85
2023/04/14 12:26:27;;;;;;;6.00;2.80;;;;;;;10.37;100.00;100374.97;103262;1295;60380;-84
2023/04/14 12:28:56;;;;;;;4.70;2.70;;;;;;;10.29;100.00;100373.80;103208;1302;61300;-85
2023/04/14 12:31:43;;;;;;;5.00;3.10;;;;;;;10.32;100.00;100373.54;102800;1291;600237;-85
2023/04/14 12:34:08;;;;;;;4.00;2.60;;;;;;;10.30;100.00;100372.69;103131;1293;61826;-86
2023/04/14 12:36:39;;;;;;;8.20;4.20;;;;;;;10.27;100.00;100374.66;103132;1294;60426;-85
2023/04/14 12:39:08;;;;;;;10.70;4.80;;;;;;;10.28;100.00;100376.44;102751;1299;74821;-85
2023/04/14 12:41:38;;;;;;;8.20;4.20;;;;;;;10.31;100.00;100380.71;102782;1294;73770;-84
2023/04/14 12:44:33;;;;;;;8.80;3.50;;;;;;;10.34;100.00;100384.98;102979;1296;74942;-85
2023/04/14 12:46:59;;;;;;;8.40;3.70;;;;;;;10.38;100.00;100385.38;102639;1294;60785;-86
2023/04/14 12:49:30;;;;;;;9.30;4.40;;;;;;;10.45;100.00;100384.44;102862;1294;60385;-87
2023/04/14 12:51:55;;;;;;;10.80;5.80;;;;;;;10.47;100.00;100386.00;102776;1294;72838;-84
2023/04/14 12:54:21;;;;;;;8.20;4.30;;;;;;;10.49;100.00;100386.55;102871;1294;60423;-84
2023/04/14 12:56:46;;;;;;;9.30;3.90;;;;;;;10.52;100.00;100387.69;102522;1295;60952;-85
2023/04/14 12:59:13;;;;;;;6.60;3.90;;;;;;;10.54;100.00;100386.08;102650;1297;60379;-85
2023/04/14 13:01:39;;;;;;;5.40;3.00;;;;;;;10.56;100.00;100386.30;102586;1293;60422;-84
2023/04/14 13:04:05;;;;;;;8.10;3.20;;;;;;;10.56;100.00;100391.89;102728;1295;60337;-85